createdAt,value
2022-10-06T00:04:24.443Z,87.95
2022-10-06T00:09:26.110Z,87.61
2022-10-06T00:14:27.801Z,87.60
2022-10-06T00:19:29.727Z,87.00
2022-10-06T00:24:32.097Z,86.88
2022-10-06T00:29:35.798Z,86.78
2022-10-06T00:34:37.357Z,86.39
2022-10-06T00:39:38.980Z,86.10
2022-10-06T00:44:40.838Z,86.02
2022-10-06T00:49:44.464Z,85.89
2022-10-06T00:54:46.460Z,85.87
2022-10-06T01:05:10.087Z,85.72
2022-10-06T01:10:11.842Z,85.52
2022-10-06T01:15:14.044Z,85.60
2022-10-06T01:20:23.928Z,85.65
2022-10-06T01:25:25.485Z,85.93
2022-10-06T01:30:32.707Z,86.19
2022-10-06T01:35:34.263Z,86.27
2022-10-06T01:40:36.865Z,86.28
2022-10-06T01:45:38.927Z,86.60
2022-10-06T01:50:41.377Z,86.56
2022-10-06T01:55:45.695Z,86.62
2022-10-06T02:00:51.513Z,86.61
2022-10-06T02:05:59.110Z,86.77
2022-10-06T02:11:09.184Z,86.80
2022-10-06T02:16:16.044Z,86.92
2022-10-06T02:21:20.630Z,86.93
2022-10-06T02:26:22.222Z,86.84
2022-10-06T02:31:25.562Z,87.03
2022-10-06T02:36:27.667Z,87.05
2022-10-06T02:41:31.036Z,86.87
2022-10-06T02:46:33.211Z,86.81
2022-10-06T02:51:35.916Z,86.75
2022-10-06T02:56:41.495Z,86.51
2022-10-06T03:01:43.372Z,86.21
2022-10-06T03:06:50.215Z,86.05
2022-10-06T03:11:54.627Z,86.08
2022-10-06T03:17:17.827Z,85.86
2022-10-06T03:22:35.444Z,85.45
2022-10-06T03:27:37.182Z,85.05
2022-10-06T03:32:43.497Z,84.67
2022-10-06T03:37:45.751Z,84.41
2022-10-06T03:43:01.930Z,84.10
2022-10-06T03:48:03.662Z,83.86
2022-10-06T03:53:06.858Z,83.75
2022-10-06T03:58:08.800Z,83.35
2022-10-06T04:03:13.729Z,83.03
2022-10-06T04:08:15.499Z,82.95
2022-10-06T04:13:18.613Z,82.81
2022-10-06T04:18:20.498Z,82.83
2022-10-06T04:23:22.580Z,82.80
2022-10-06T04:28:24.317Z,82.87
2022-10-06T04:33:27.197Z,82.97
2022-10-06T04:38:43.093Z,83.10
2022-10-06T04:43:57.369Z,83.36
2022-10-06T04:49:08.962Z,83.46
2022-10-06T04:54:11.101Z,83.47
2022-10-06T04:59:17.969Z,83.56
2022-10-06T05:04:21.229Z,83.40
2022-10-06T05:09:23.013Z,83.44
2022-10-06T05:14:29.223Z,83.41
2022-10-06T05:19:31.336Z,83.61
2022-10-06T05:24:33.371Z,83.67
2022-10-06T05:29:35.214Z,83.54
2022-10-06T05:34:38.883Z,83.96
2022-10-06T05:39:41.358Z,83.71
2022-10-06T05:44:43.265Z,84.09
2022-10-06T05:49:47.245Z,83.94
2022-10-06T05:54:49.147Z,83.70
2022-10-06T05:59:50.885Z,83.62
2022-10-06T06:05:05.591Z,83.66
2022-10-06T06:10:09.462Z,83.40
2022-10-06T06:15:30.367Z,83.48
2022-10-06T06:21:06.566Z,83.19
2022-10-06T06:26:12.153Z,83.10
2022-10-06T06:31:21.306Z,82.96
2022-10-06T06:36:35.621Z,82.95
2022-10-06T06:41:58.437Z,82.84
2022-10-06T06:47:34.853Z,82.44
2022-10-06T06:52:39.300Z,82.34
2022-10-06T06:58:01.666Z,82.21
2022-10-06T07:03:06.108Z,82.04
2022-10-06T07:08:10.218Z,81.88
2022-10-06T07:13:17.360Z,81.73
2022-10-06T07:18:39.018Z,81.24
2022-10-06T07:23:59.811Z,78.16
2022-10-06T07:29:01.671Z,69.48
2022-10-06T07:34:04.815Z,63.63
2022-10-06T07:39:06.538Z,100.00
2022-10-06T07:44:08.358Z,63.63
2022-10-06T07:49:12.066Z,56.98
2022-10-06T07:54:14.055Z,57.20
2022-10-06T07:59:35.642Z,59.87
2022-10-06T08:04:37.351Z,62.29
2022-10-06T08:09:39.017Z,64.53
2022-10-06T08:14:40.597Z,65.13
2022-10-06T08:19:42.181Z,65.61
2022-10-06T08:25:04.667Z,65.77
2022-10-06T08:30:06.261Z,65.52
2022-10-06T08:35:08.302Z,66.00
2022-10-06T08:40:14.361Z,65.81
2022-10-06T08:45:41.663Z,65.43
2022-10-06T08:51:03.184Z,65.61
2022-10-06T08:56:23.332Z,65.45
2022-10-06T09:01:47.667Z,64.74
2022-10-06T09:06:57.710Z,64.26
2022-10-06T09:12:30.693Z,64.33
2022-10-06T09:17:40.730Z,64.13
2022-10-06T09:22:44.524Z,64.25
2022-10-06T09:27:52.997Z,63.71
2022-10-06T09:33:00.255Z,63.42
2022-10-06T09:38:08.193Z,63.75
2022-10-06T09:43:31.157Z,62.91
2022-10-06T09:48:52.540Z,62.70
2022-10-06T09:54:10.964Z,62.67
2022-10-06T10:06:59.399Z,61.54
2022-10-06T11:17:04.238Z,58.51
2022-10-06T11:22:20.744Z,57.71
2022-10-06T11:27:36.402Z,57.63
2022-10-06T11:32:37.905Z,56.90
2022-10-06T11:37:58.544Z,56.54
2022-10-06T11:43:18.148Z,56.59
2022-10-06T11:48:26.930Z,57.49
2022-10-06T11:53:35.033Z,57.62
2022-10-06T11:58:51.795Z,57.23
2022-10-06T12:04:08.632Z,55.74
2022-10-06T12:09:25.821Z,56.15
2022-10-06T12:20:01.335Z,56.21
2022-10-06T12:25:05.573Z,55.81
2022-10-06T12:30:19.337Z,56.14
2022-10-06T12:35:30.331Z,55.66
2022-10-06T12:40:54.644Z,55.28
2022-10-06T12:46:02.048Z,55.09
2022-10-06T12:51:06.449Z,55.39
2022-10-06T12:56:28.209Z,55.41
2022-10-06T13:01:29.827Z,55.07
2022-10-06T13:06:32.016Z,54.97
2022-10-06T13:11:33.706Z,55.85
2022-10-06T13:16:40.791Z,55.54
2022-10-06T13:21:42.845Z,55.55
2022-10-06T13:26:45.529Z,55.61
2022-10-06T13:31:52.766Z,55.53
2022-10-06T13:37:00.625Z,54.75
2022-10-06T13:42:17.819Z,55.41
2022-10-06T13:47:22.448Z,55.39
2022-10-06T13:52:35.932Z,55.43
2022-10-06T13:58:09.968Z,54.77
2022-10-06T14:03:20.560Z,54.92
2022-10-06T14:08:27.605Z,55.53
2022-10-06T14:13:31.822Z,54.94
2022-10-06T14:18:58.353Z,55.18
2022-10-06T14:24:07.782Z,55.09
2022-10-06T14:29:14.359Z,55.77
2022-10-06T14:34:18.293Z,55.43
2022-10-06T14:39:20.011Z,55.80
2022-10-06T14:44:22.351Z,56.00
2022-10-06T14:49:26.065Z,56.30
2022-10-06T14:54:27.538Z,56.28
2022-10-06T14:59:29.233Z,56.31
2022-10-06T15:04:31.925Z,56.28
2022-10-06T15:09:35.745Z,56.06
2022-10-06T15:14:39.638Z,55.95
2022-10-06T15:19:42.104Z,56.15
2022-10-06T15:24:48.990Z,56.18
2022-10-06T15:29:50.727Z,56.16
2022-10-06T15:34:52.392Z,56.30
2022-10-06T15:39:53.977Z,56.66
2022-10-06T15:44:55.877Z,56.95
2022-10-06T15:49:57.583Z,57.35
2022-10-06T15:54:59.860Z,58.07
2022-10-06T16:00:01.354Z,58.45
2022-10-06T16:05:02.864Z,58.99
2022-10-06T16:10:04.674Z,59.67
2022-10-06T16:15:06.888Z,60.07
2022-10-06T16:20:09.963Z,60.58
2022-10-06T16:25:12.020Z,60.80
2022-10-06T16:30:13.655Z,61.46
2022-10-06T16:35:18.305Z,62.16
2022-10-06T16:40:22.703Z,62.71
2022-10-06T16:45:25.552Z,63.01
2022-10-06T16:50:27.144Z,63.46
2022-10-06T16:55:28.890Z,63.91
2022-10-06T17:00:32.323Z,64.55
2022-10-06T17:05:36.717Z,65.39
2022-10-06T17:10:39.246Z,66.04
2022-10-06T17:15:41.321Z,66.67
2022-10-06T17:20:43.241Z,67.18
2022-10-06T17:25:45.230Z,67.68
2022-10-06T17:30:52.281Z,68.58
2022-10-06T17:35:54.971Z,68.85
2022-10-06T17:40:57.212Z,69.32
2022-10-06T17:45:59.498Z,69.95
2022-10-06T17:51:01.423Z,70.66
2022-10-06T17:56:07.251Z,71.09
2022-10-06T18:01:12.607Z,71.86
2022-10-06T18:06:17.320Z,72.56
2022-10-06T18:11:41.865Z,72.77
2022-10-06T18:16:46.745Z,73.13
2022-10-06T18:21:49.570Z,73.52
2022-10-06T18:26:54.167Z,73.89
2022-10-06T18:32:14.519Z,74.01
2022-10-06T18:37:18.912Z,74.45
2022-10-06T18:42:20.994Z,74.60
2022-10-06T18:47:41.407Z,74.69
2022-10-06T18:52:43.505Z,75.32
2022-10-06T18:57:45.756Z,75.60
2022-10-06T19:02:52.278Z,75.65
2022-10-06T19:07:54.123Z,75.84
2022-10-06T19:12:55.962Z,76.06
2022-10-06T19:17:57.507Z,76.28
2022-10-06T19:22:59.658Z,76.28
2022-10-06T19:28:01.397Z,76.74
2022-10-06T19:33:02.965Z,76.90
2022-10-06T19:38:04.643Z,76.93
2022-10-06T19:43:06.612Z,76.91
2022-10-06T19:48:10.947Z,77.03
2022-10-06T19:53:12.446Z,77.37
2022-10-06T19:58:13.951Z,77.59
2022-10-06T20:03:15.484Z,77.78
2022-10-06T20:08:17.464Z,77.74
2022-10-06T20:13:19.997Z,77.86
2022-10-06T20:18:21.832Z,78.14
2022-10-06T20:23:23.651Z,78.18
2022-10-06T20:28:25.752Z,78.40
2022-10-06T20:33:27.640Z,78.92
2022-10-06T20:38:47.850Z,78.98
2022-10-06T20:43:50.708Z,79.22
2022-10-06T20:48:52.539Z,79.35
2022-10-06T20:53:54.419Z,79.44
2022-10-06T20:58:57.751Z,79.76
2022-10-06T21:03:59.275Z,79.87
2022-10-06T21:09:01.790Z,80.00
2022-10-06T21:14:03.870Z,80.26
2022-10-06T21:19:10.146Z,80.51
2022-10-06T21:24:12.025Z,80.85
2022-10-06T21:29:15.649Z,81.06
2022-10-06T21:34:17.312Z,81.23
2022-10-06T21:39:19.059Z,81.46
2022-10-06T21:44:20.624Z,81.66
2022-10-06T21:49:24.495Z,82.29
2022-10-06T21:54:26.097Z,82.38
2022-10-06T21:59:27.741Z,82.68
2022-10-06T22:04:29.282Z,83.13
2022-10-06T22:09:31.038Z,83.62
2022-10-06T22:14:32.723Z,83.57
2022-10-06T22:19:34.210Z,83.69
2022-10-06T22:24:36.116Z,83.67
2022-10-06T22:29:38.122Z,83.92
2022-10-06T22:34:40.023Z,83.96
2022-10-06T22:39:41.502Z,84.24
2022-10-06T22:44:43.027Z,84.27
2022-10-06T22:49:44.811Z,84.69
2022-10-06T22:54:46.562Z,84.78
2022-10-06T22:59:48.515Z,84.68
2022-10-06T23:04:50.026Z,84.54
2022-10-06T23:09:51.595Z,84.91
2022-10-06T23:14:53.204Z,85.08
2022-10-06T23:19:54.957Z,84.98
2022-10-06T23:24:56.734Z,85.00
2022-10-06T23:29:58.349Z,85.41
2022-10-06T23:34:59.879Z,85.41
2022-10-06T23:40:01.613Z,85.34
2022-10-06T23:45:03.136Z,85.41
2022-10-06T23:50:05.520Z,85.64
2022-10-06T23:55:07.735Z,85.82
